Flight Track Log - Related Links

Times and Time Zones

All times are in EDT time to prevent confusion due to time zone crossing. See the AWI3704 flight status page for this flight to view local times or setup timezone preferences in your user account.

Time Position Orientation Groundspeed Altitude Reporting Facility
EDT Latitude Longitude Course Direction KTS MPH feet Rate Location/Type
Sun 11:31:14 AM 42.7206 -73.8731 231° Southwest 214 246 2,900  Level Boston Center
Sun 11:32:14 AM 42.6781 -73.9453 231° Southwest 229 264 5,500 3,050 Climbing Boston Center
Sun 11:33:00 AM 42.7333 -74.2855 270° West  Level FlightAware Approximate
Sun 11:33:14 AM 42.6372 -74.0261 236° Southwest 255 293 9,000  Level Boston Center
Sun 11:34:00 AM 42.6790 -74.3758 220° Southwest  Level FlightAware Approximate
Sun 11:34:14 AM 42.5989 -74.1014 235° Southwest 260 299 11,600  Level Boston Center
Sun 11:35:00 AM 42.6103 -74.4530 220° Southwest  Level FlightAware Approximate
Sun 11:35:14 AM 42.5581 -74.1819 235° Southwest 272 313 14,000  Level Boston Center
Sun 11:36:14 AM 42.5106 -74.2822 237° Southwest 285 328 16,300 2,200 Climbing Boston Center
Sun 11:37:14 AM 42.4694 -74.3625 235° Southwest 290 334 18,400 1,350 Climbing Boston Center
Sun 11:38:14 AM 42.4197 -74.4678 237° Southwest 301 346 19,000 300 Climbing Boston Center
Sun 11:39:14 AM 42.3744 -74.5536 234° Southwest 309 356 19,000  Level Boston Center
Sun 11:40:14 AM 42.3203 -74.6669 237° Southwest 314 361 19,000  Level Boston Center
Sun 11:41:54 AM 42.2433 -74.8297 237° Southwest 307 353 19,000  Level New York Center
Sun 11:42:55 AM 42.1919 -74.9275 235° Southwest 312 359 19,000  Level New York Center
Sun 11:43:56 AM 42.1333 -74.9992 222° Southwest 323 372 19,000  Level New York Center
Sun 11:44:53 AM 42.0475 -75.0689 211° Southwest 323 372 19,000  Level New York Center
Sun 11:45:54 AM 41.9725 -75.1283 211° Southwest 328 377 19,000  Level New York Center
Sun 11:46:55 AM 41.9039 -75.1850 212° Southwest 322 371 19,000  Level New York Center
Sun 11:47:55 AM 41.8286 -75.2469 212° Southwest 327 376 19,000 -102 Level New York Center
Sun 11:48:53 AM 41.7447 -75.3136 211° Southwest 327 376 18,800 -1,220 Descending New York Center
Sun 11:49:53 AM 41.6697 -75.3722 210° Southwest 322 371 16,600 -2,033 Descending New York Center
Sun 11:50:54 AM 41.5944 -75.4336 211° Southwest 322 371 14,700 -1,884 Descending New York Center
Sun 11:51:54 AM 41.5278 -75.4872 211° Southwest 322 371 12,800 -1,339 Descending New York Center
Sun 11:52:55 AM 41.4547 -75.5458 211° Southwest 322 371 12,000 -397 Descending New York Center
Sun 11:53:55 AM 41.3750 -75.6092 211° Southwest 322 371 12,000  Level New York Center
Sun 11:54:53 AM 41.3083 -75.6597 210° Southwest 322 371 12,000 -559 Level New York Center
Sun 11:55:53 AM 41.2217 -75.6892 194° South 307 353 10,900 -1,000 Descending New York Center
Sun 11:56:53 AM 41.1364 -75.6886 180° South 309 356 10,000 -496 Descending New York Center
Sun 11:57:54 AM 41.0542 -75.6633 167° South 325 374 9,900  Descending New York Center
Sun 11:58:54 AM 40.9578 -75.6261 164° South 338 389 10,000 50 Climbing New York Center
Sun 11:59:55 AM 40.8675 -75.5922 164° South 338 389 10,000 50 Level New York Center
Sun 12:00:53 PM 40.7811 -75.5586 164° South 332 382 10,100 50 Climbing New York Center
Sun 12:01:54 PM 40.6908 -75.5250 164° South 332 382 10,100  Level New York Center
Sun 12:02:55 PM 40.6108 -75.4922 163° South 321 369 10,100  Level New York Center
Sun 12:03:53 PM 40.5350 -75.4650 165° South 294 338 10,100 -50 Level New York Center
Sun 12:04:54 PM 40.4608 -75.4383 165° South 285 328 10,000 -496 Descending New York Center
Sun 12:05:54 PM 40.3978 -75.4011 156° South 279 321 9,100 -1,091 Descending New York Center
Sun 12:06:55 PM 40.3203 -75.3553 156° South 279 321 7,800 -1,261 Descending New York Center
Sun 12:07:53 PM 40.2561 -75.2939 144° Southeast 279 321 6,600 -857 Descending New York Center
Sun 12:08:54 PM 40.1956 -75.2436 148° Southeast 286 329 6,100 -246 Descending New York Center
Sun 12:09:55 PM 40.1269 -75.1794 144° Southeast 286 329 6,100  Level New York Center
Sun 12:10:53 PM 40.0706 -75.1272 145° Southeast 278 320 6,100  Level New York Center
Sun 12:11:40 PM 40.0167 -75.0833 148° Southeast 253 291 6,100 -356 Level Philadelphia TRACON
Sun 12:12:34 PM 40.0000 -75.0167 108° East 210 242 5,500 -1,263 Descending Philadelphia TRACON
Sun 12:13:34 PM 39.9667 -74.9833 143° Southeast 186 214 3,700 -1,200 Descending Philadelphia TRACON
Sun 12:14:34 PM 39.9333 -75.0167 217° Southwest 157 181 3,100 -650 Descending Philadelphia TRACON
Sun 12:15:34 PM 39.9167 -75.0833 252° West 167 192 2,400 -700 Descending Philadelphia TRACON

Login

Don't have an account? Register now (free) for customized features, flight alerts, and more!